Time;durP1;ratioP1;P1;durP2;ratioP2;P2;SDS_P1;SDS_P2;PMS_P1;PMS_P2;Temp;Humidity;BMP_temperature;BMP_pressure;BME280_temperature;BME280_humidity;BME280_pressure;Samples;Min_cycle;Max_cycle;Signal;HPM_P1;HPM_P2
2023/03/07 00:01:39;;;;;;;0.70;0.70;;;0.20;99.90;;;;;;4405569;32;20077;-62
2023/03/07 00:04:04;;;;;;;0.50;0.50;;;0.00;99.90;;;;;;4405502;32;20112;-64
2023/03/07 00:06:30;;;;;;;0.50;0.50;;;0.10;99.90;;;;;;4404222;32;20082;-62
2023/03/07 00:08:58;;;;;;;6.65;2.47;;;0.10;99.90;;;;;;4404706;32;20073;-63
2023/03/07 00:11:25;;;;;;;0.45;0.45;;;0.10;99.90;;;;;;4404282;32;20090;-62
2023/03/07 00:13:51;;;;;;;0.40;0.40;;;0.00;99.90;;;;;;4405681;32;20090;-65
2023/03/07 00:16:18;;;;;;;0.68;0.68;;;0.00;99.90;;;;;;4406338;32;20516;-63
2023/03/07 00:18:44;;;;;;;0.62;0.62;;;0.00;99.90;;;;;;4405854;32;20134;-63
2023/03/07 00:21:13;;;;;;;0.40;0.40;;;0.00;99.90;;;;;;4406767;32;20074;-62
2023/03/07 00:23:41;;;;;;;0.52;0.52;;;0.00;99.90;;;;;;4405445;32;20102;-64
2023/03/07 00:26:11;;;;;;;0.50;0.50;;;0.20;99.90;;;;;;4404649;32;20086;-61
2023/03/07 00:28:36;;;;;;;0.50;0.50;;;0.20;99.90;;;;;;4403097;32;20078;-63
2023/03/07 00:31:04;;;;;;;0.50;0.50;;;0.20;99.90;;;;;;4405491;32;20073;-64
2023/03/07 00:33:30;;;;;;;0.68;0.68;;;0.10;99.90;;;;;;4404795;32;20128;-62
2023/03/07 00:35:58;;;;;;;0.65;0.65;;;0.10;99.90;;;;;;4404152;32;20572;-63
2023/03/07 00:38:24;;;;;;;0.65;0.65;;;0.10;99.90;;;;;;4402179;32;20098;-61
2023/03/07 00:40:58;;;;;;;0.50;0.50;;;0.10;99.90;;;;;;4396203;32;20069;-65
2023/03/07 00:43:24;;;;;;;2.12;1.00;;;0.20;99.90;;;;;;4402743;32;20058;-63
2023/03/07 00:45:49;;;;;;;1.90;0.65;;;0.10;99.90;;;;;;4404269;32;20110;-61
2023/03/07 00:48:17;;;;;;;0.60;0.60;;;0.20;99.90;;;;;;4404008;32;20109;-64
2023/03/07 00:50:42;;;;;;;1.40;0.77;;;0.20;99.90;;;;;;4405923;32;20524;-62
2023/03/07 00:53:08;;;;;;;0.85;0.85;;;0.10;99.90;;;;;;4404808;32;20078;-62
2023/03/07 00:55:34;;;;;;;0.60;0.60;;;0.10;99.90;;;;;;4403574;32;20093;-63
2023/03/07 00:58:00;;;;;;;0.55;0.55;;;0.10;99.90;;;;;;4406126;32;20081;-63
2023/03/07 01:00:25;;;;;;;0.40;0.40;;;0.00;99.90;;;;;;4403850;32;20435;-64
2023/03/07 01:02:53;;;;;;;0.50;0.50;;;0.10;99.90;;;;;;4404095;32;20090;-66
2023/03/07 01:05:18;;;;;;;0.70;0.68;;;0.00;99.90;;;;;;4406268;32;20101;-64
2023/03/07 01:07:44;;;;;;;0.50;0.50;;;-0.10;99.90;;;;;;4407091;32;20089;-64
2023/03/07 01:10:09;;;;;;;0.50;0.50;;;0.00;99.90;;;;;;4407749;32;20074;-62
2023/03/07 01:12:35;;;;;;;0.40;0.40;;;0.00;99.90;;;;;;4406089;32;20085;-64
2023/03/07 01:15:02;;;;;;;0.50;0.50;;;0.00;99.90;;;;;;4408213;32;20062;-63
2023/03/07 01:17:27;;;;;;;0.50;0.50;;;0.00;99.90;;;;;;4408131;32;20089;-62
2023/03/07 01:19:52;;;;;;;0.52;0.52;;;-0.10;99.90;;;;;;4407741;32;20129;-62
2023/03/07 01:22:18;;;;;;;0.50;0.50;;;0.10;99.90;;;;;;4406834;32;20120;-64
2023/03/07 01:24:43;;;;;;;0.60;0.60;;;0.10;99.90;;;;;;4407470;32;20546;-65
2023/03/07 01:27:09;;;;;;;1.33;1.23;;;0.00;99.90;;;;;;4406761;32;20124;-63
2023/03/07 01:29:34;;;;;;;0.50;0.50;;;-0.10;99.90;;;;;;4407490;32;20110;-65
2023/03/07 01:32:00;;;;;;;2.10;1.45;;;-0.10;99.90;;;;;;4407006;32;20089;-61
2023/03/07 01:34:25;;;;;;;0.75;0.75;;;0.00;99.90;;;;;;4406837;32;20086;-62
2023/03/07 01:36:51;;;;;;;0.52;0.52;;;0.00;99.90;;;;;;4406206;32;20136;-61
2023/03/07 01:39:16;;;;;;;0.50;0.50;;;0.00;99.90;;;;;;4406363;32;20394;-64
2023/03/07 01:41:43;;;;;;;0.40;0.40;;;0.00;99.90;;;;;;4405701;32;20074;-62
2023/03/07 01:44:20;;;;;;;0.82;0.82;;;0.10;99.90;;;;;;4407690;32;20089;-63
2023/03/07 01:46:49;;;;;;;0.40;0.40;;;0.10;99.90;;;;;;4407128;32;20081;-66
2023/03/07 01:49:19;;;;;;;0.60;0.60;;;0.20;99.90;;;;;;4401771;32;20082;-66
2023/03/07 01:51:51;;;;;;;0.50;0.50;;;0.10;99.90;;;;;;4405964;32;20065;-63
2023/03/07 01:54:18;;;;;;;0.50;0.50;;;0.10;99.90;;;;;;4408523;32;20106;-66
2023/03/07 01:56:45;;;;;;;0.60;0.60;;;0.10;99.90;;;;;;4408416;32;21105;-63
2023/03/07 01:59:12;;;;;;;1.55;1.23;;;0.20;99.90;;;;;;4406390;32;20113;-65
2023/03/07 02:01:37;;;;;;;0.52;0.52;;;0.30;99.90;;;;;;4407586;32;20085;-61
2023/03/07 02:04:26;;;;;;;1.92;1.37;;;0.20;99.90;;;;;;4407501;32;20477;-62
2023/03/07 02:06:51;;;;;;;0.50;0.50;;;0.30;99.90;;;;;;4406471;32;20069;-63
2023/03/07 02:09:20;;;;;;;0.50;0.50;;;0.30;99.90;;;;;;4405607;32;20533;-66
2023/03/07 02:11:47;;;;;;;0.40;0.40;;;0.40;99.90;;;;;;4404117;32;20066;-63
2023/03/07 02:14:12;;;;;;;1.25;1.12;;;0.40;99.90;;;;;;4407290;32;20148;-64
2023/03/07 02:16:38;;;;;;;0.40;0.40;;;0.50;99.90;;;;;;4407853;32;20175;-61
2023/03/07 02:19:31;;;;;;;0.85;0.82;;;0.40;99.90;;;;;;4407612;32;20066;-64
2023/03/07 02:22:09;;;;;;;0.40;0.40;;;0.50;99.90;;;;;;4391599;32;21996;-62
2023/03/07 02:24:42;;;;;;;0.82;0.82;;;0.60;99.90;;;;;;4406720;32;20062;-65
2023/03/07 02:27:08;;;;;;;0.50;0.50;;;0.60;99.90;;;;;;4405969;32;20120;-62
2023/03/07 02:29:33;;;;;;;0.50;0.50;;;0.70;99.90;;;;;;4407699;32;20085;-61
2023/03/07 02:31:59;;;;;;;0.40;0.40;;;0.80;99.90;;;;;;4406042;32;20078;-61
2023/03/07 02:34:28;;;;;;;0.45;0.45;;;0.70;99.90;;;;;;4405832;32;20089;-63
2023/03/07 02:37:05;;;;;;;0.50;0.50;;;0.70;99.90;;;;;;4404712;32;20093;-64
2023/03/07 02:39:31;;;;;;;0.60;0.60;;;0.80;99.90;;;;;;4404119;32;20081;-61
2023/03/07 02:42:02;;;;;;;0.52;0.52;;;0.80;99.90;;;;;;4406963;32;20074;-62
2023/03/07 02:44:28;;;;;;;1.02;0.95;;;0.80;99.90;;;;;;4406885;32;20070;-61
2023/03/07 02:46:53;;;;;;;0.40;0.40;;;0.80;99.90;;;;;;4406537;32;20137;-62
2023/03/07 02:49:19;;;;;;;0.60;0.60;;;0.80;99.90;;;;;;4406419;32;20073;-62
2023/03/07 02:51:44;;;;;;;1.20;0.90;;;0.90;99.90;;;;;;4404609;32;20154;-63
2023/03/07 02:54:10;;;;;;;2.67;1.25;;;0.90;99.90;;;;;;4405479;32;20494;-63
2023/03/07 02:56:37;;;;;;;1.35;1.00;;;1.00;99.90;;;;;;4405928;32;20102;-62
2023/03/07 02:59:02;;;;;;;0.40;0.40;;;1.00;99.90;;;;;;4406805;32;20123;-62
2023/03/07 03:01:28;;;;;;;0.50;0.50;;;1.00;99.90;;;;;;4403580;32;20522;-62
2023/03/07 03:03:53;;;;;;;0.95;0.95;;;1.00;99.90;;;;;;4406566;32;20073;-62
2023/03/07 03:06:18;;;;;;;0.60;0.60;;;1.10;99.90;;;;;;4405279;32;20062;-63
2023/03/07 03:08:44;;;;;;;0.95;0.90;;;1.10;99.90;;;;;;4405973;32;20120;-64
2023/03/07 03:11:09;;;;;;;0.43;0.43;;;1.10;99.90;;;;;;4407664;32;20065;-62
2023/03/07 03:13:35;;;;;;;0.45;0.45;;;1.20;99.90;;;;;;4407807;32;20084;-62
2023/03/07 03:16:00;;;;;;;0.45;0.45;;;1.10;99.90;;;;;;4406888;32;20081;-63
2023/03/07 03:18:28;;;;;;;0.60;0.60;;;1.10;99.90;;;;;;4406233;32;20097;-65
2023/03/07 03:20:53;;;;;;;10.82;1.60;;;1.20;99.90;;;;;;4401861;32;20078;-63
2023/03/07 03:23:19;;;;;;;1.23;1.12;;;1.30;99.90;;;;;;4404225;32;20062;-66
2023/03/07 03:25:44;;;;;;;0.70;0.70;;;1.20;99.90;;;;;;4403491;32;20074;-62
2023/03/07 03:28:12;;;;;;;0.85;0.80;;;1.30;99.90;;;;;;4403362;32;20084;-64
2023/03/07 03:30:37;;;;;;;0.60;0.60;;;1.30;99.90;;;;;;4404930;32;20141;-62
2023/03/07 03:33:03;;;;;;;0.82;0.82;;;1.30;99.90;;;;;;4403773;32;20077;-65
2023/03/07 03:35:28;;;;;;;0.68;0.68;;;1.40;99.90;;;;;;4405432;32;20487;-67
2023/03/07 03:37:55;;;;;;;0.60;0.60;;;1.50;99.90;;;;;;4403697;32;20505;-64
2023/03/07 03:40:20;;;;;;;0.75;0.75;;;1.40;99.90;;;;;;4404509;32;20075;-63
2023/03/07 03:42:46;;;;;;;0.70;0.70;;;1.40;99.90;;;;;;4403596;32;20085;-63
2023/03/07 03:45:14;;;;;;;0.40;0.40;;;1.30;99.90;;;;;;4405026;32;20156;-61
2023/03/07 03:47:39;;;;;;;0.60;0.60;;;1.40;99.90;;;;;;4407077;32;20061;-62
2023/03/07 03:50:05;;;;;;;7.62;1.67;;;1.40;99.90;;;;;;4407002;32;20078;-61
2023/03/07 03:52:31;;;;;;;0.82;0.82;;;1.50;99.90;;;;;;4405263;32;20410;-62
2023/03/07 03:54:56;;;;;;;0.65;0.65;;;1.50;99.90;;;;;;4405236;32;20139;-63
2023/03/07 03:57:22;;;;;;;2.50;1.48;;;1.50;99.90;;;;;;4404494;32;20566;-64
2023/03/07 03:59:49;;;;;;;0.57;0.57;;;1.50;99.90;;;;;;4405635;32;20090;-61
2023/03/07 04:02:15;;;;;;;0.50;0.50;;;1.50;99.90;;;;;;4405517;32;20466;-61
2023/03/07 04:04:40;;;;;;;0.60;0.60;;;1.60;99.90;;;;;;4405659;32;20082;-62
2023/03/07 04:07:06;;;;;;;0.50;0.50;;;1.60;99.90;;;;;;4405138;32;20082;-63
2023/03/07 04:09:32;;;;;;;0.52;0.52;;;1.60;99.90;;;;;;4404284;32;20152;-65
2023/03/07 04:11:57;;;;;;;0.95;0.95;;;1.60;99.90;;;;;;4404396;32;20155;-64
2023/03/07 04:14:23;;;;;;;0.50;0.50;;;1.70;99.90;;;;;;4405907;32;20140;-62
2023/03/07 04:16:49;;;;;;;0.82;0.82;;;1.60;99.90;;;;;;4405857;32;20082;-61
2023/03/07 04:19:15;;;;;;;0.52;0.52;;;1.70;99.90;;;;;;4404864;32;20073;-62
2023/03/07 04:21:40;;;;;;;0.70;0.70;;;1.70;99.90;;;;;;4405553;32;20181;-64
2023/03/07 04:24:07;;;;;;;0.50;0.50;;;1.80;99.90;;;;;;4405413;32;20074;-62
2023/03/07 04:26:34;;;;;;;0.52;0.52;;;1.80;99.90;;;;;;4402778;32;20469;-63
2023/03/07 04:28:59;;;;;;;1.17;1.02;;;1.80;99.90;;;;;;4405823;32;20057;-64
2023/03/07 04:31:26;;;;;;;1.05;1.05;;;1.80;99.90;;;;;;4405913;32;20573;-64
2023/03/07 04:33:53;;;;;;;0.40;0.40;;;1.80;99.90;;;;;;4403067;32;20106;-63
2023/03/07 04:36:19;;;;;;;0.70;0.70;;;1.80;99.90;;;;;;4406000;32;20102;-63
2023/03/07 04:38:46;;;;;;;1.02;1.02;;;1.80;99.90;;;;;;4404619;32;20062;-61
2023/03/07 04:41:15;;;;;;;2.37;1.17;;;1.80;99.90;;;;;;4406263;32;20467;-63
2023/03/07 04:43:41;;;;;;;2.97;1.12;;;1.80;99.90;;;;;;4406788;32;20510;-62
2023/03/07 04:46:08;;;;;;;0.75;0.75;;;1.80;99.90;;;;;;4407188;32;20090;-61
2023/03/07 04:48:34;;;;;;;0.73;0.73;;;1.80;99.90;;;;;;4409512;32;20102;-62
2023/03/07 04:50:59;;;;;;;0.40;0.40;;;1.70;99.90;;;;;;4407653;32;20534;-60
2023/03/07 04:53:25;;;;;;;4.12;1.58;;;1.80;99.90;;;;;;4408496;32;20117;-60
2023/03/07 04:55:56;;;;;;;0.60;0.60;;;1.60;99.90;;;;;;4407654;32;20168;-63
2023/03/07 04:58:22;;;;;;;0.50;0.50;;;1.60;99.90;;;;;;4408250;32;20082;-61
2023/03/07 05:00:47;;;;;;;0.75;0.75;;;1.60;99.90;;;;;;4408421;32;20089;-61
2023/03/07 05:03:13;;;;;;;0.65;0.65;;;1.50;99.90;;;;;;4408140;32;20144;-61
2023/03/07 05:05:39;;;;;;;0.57;0.57;;;1.60;99.90;;;;;;4408754;32;20077;-62
2023/03/07 05:08:05;;;;;;;1.00;1.00;;;1.60;99.90;;;;;;4408509;32;20074;-62
2023/03/07 05:10:32;;;;;;;0.52;0.52;;;1.50;99.90;;;;;;4406589;32;20486;-62
2023/03/07 05:12:59;;;;;;;0.57;0.57;;;1.50;99.90;;;;;;4407506;32;20817;-65
2023/03/07 05:15:25;;;;;;;0.40;0.40;;;1.60;99.90;;;;;;4408266;32;20077;-61
2023/03/07 05:17:50;;;;;;;4.53;1.25;;;1.50;99.90;;;;;;4409039;32;20657;-61
2023/03/07 05:20:16;;;;;;;0.40;0.40;;;1.50;99.90;;;;;;4406169;32;20090;-63
2023/03/07 05:22:42;;;;;;;0.40;0.40;;;1.40;99.90;;;;;;4400826;32;20086;-65
2023/03/07 05:25:07;;;;;;;0.65;0.65;;;1.40;99.90;;;;;;4408222;32;20427;-68
2023/03/07 05:27:33;;;;;;;1.25;1.05;;;1.40;99.90;;;;;;4405181;32;20126;-60
2023/03/07 05:29:58;;;;;;;1.33;1.08;;;1.40;99.90;;;;;;4406374;32;20074;-61
2023/03/07 05:32:24;;;;;;;0.40;0.40;;;1.50;99.90;;;;;;4407906;32;20537;-63
2023/03/07 05:34:50;;;;;;;1.62;1.52;;;1.50;99.90;;;;;;4406653;32;20129;-62
2023/03/07 05:37:15;;;;;;;0.40;0.40;;;1.40;99.90;;;;;;4404058;32;20066;-61
2023/03/07 05:39:41;;;;;;;0.60;0.60;;;1.50;99.90;;;;;;4406661;32;20193;-62
2023/03/07 05:42:06;;;;;;;0.40;0.40;;;1.50;99.90;;;;;;4406838;32;20117;-61
2023/03/07 05:44:32;;;;;;;1.10;0.98;;;1.50;99.90;;;;;;4407185;32;20163;-62
2023/03/07 05:46:57;;;;;;;0.80;0.80;;;1.50;99.90;;;;;;4405274;32;20102;-64
2023/03/07 05:49:23;;;;;;;0.55;0.55;;;1.50;99.90;;;;;;4407410;32;21070;-64
2023/03/07 05:51:49;;;;;;;1.00;0.75;;;1.50;99.90;;;;;;4405223;32;20145;-63
2023/03/07 05:54:15;;;;;;;0.50;0.50;;;1.50;99.90;;;;;;4408108;32;20121;-61
2023/03/07 05:56:40;;;;;;;0.50;0.50;;;1.50;99.90;;;;;;4408266;32;20082;-61
2023/03/07 05:59:06;;;;;;;0.85;0.85;;;1.50;99.90;;;;;;4405862;32;20069;-62
2023/03/07 06:01:32;;;;;;;0.77;0.77;;;1.50;99.90;;;;;;4386653;32;20109;-63
2023/03/07 06:03:58;;;;;;;0.60;0.60;;;1.60;99.90;;;;;;4405457;32;20085;-63
2023/03/07 06:06:24;;;;;;;0.60;0.47;;;1.60;99.90;;;;;;4403085;32;20066;-61
2023/03/07 06:08:49;;;;;;;0.80;0.80;;;1.60;99.90;;;;;;4406661;32;20085;-62
2023/03/07 06:11:15;;;;;;;0.70;0.60;;;1.70;99.90;;;;;;4403732;32;20651;-65
2023/03/07 06:13:40;;;;;;;1.25;1.15;;;1.60;99.90;;;;;;4405076;32;20101;-63
2023/03/07 06:16:06;;;;;;;0.73;0.70;;;1.70;99.90;;;;;;4402659;32;20142;-67
2023/03/07 06:18:31;;;;;;;0.68;0.68;;;1.70;99.90;;;;;;4393896;32;20439;-63
2023/03/07 06:20:59;;;;;;;0.60;0.60;;;1.60;99.90;;;;;;4403675;32;20093;-65
2023/03/07 06:23:26;;;;;;;0.62;0.62;;;1.70;99.90;;;;;;4406311;32;20102;-62
2023/03/07 06:25:52;;;;;;;0.75;0.75;;;1.80;99.90;;;;;;4401974;32;20284;-62
2023/03/07 06:28:17;;;;;;;0.65;0.65;;;1.80;99.90;;;;;;4394597;32;20086;-62
2023/03/07 06:30:44;;;;;;;0.62;0.62;;;1.80;99.90;;;;;;4391826;32;20086;-63
2023/03/07 06:33:09;;;;;;;1.27;1.15;;;1.80;99.90;;;;;;4387794;32;20609;-62
2023/03/07 06:35:39;;;;;;;0.60;0.60;;;1.90;99.90;;;;;;4399748;32;20618;-63
2023/03/07 06:38:04;;;;;;;0.40;0.40;;;1.90;99.90;;;;;;4394608;32;20185;-62
2023/03/07 06:40:31;;;;;;;1.65;0.75;;;1.90;99.90;;;;;;4395689;32;20058;-61
2023/03/07 06:43:00;;;;;;;1.55;0.85;;;2.00;99.90;;;;;;4400417;32;20159;-61
2023/03/07 06:45:25;;;;;;;0.80;0.80;;;2.00;99.90;;;;;;4395477;32;20093;-65
2023/03/07 06:47:51;;;;;;;1.23;1.12;;;2.00;99.90;;;;;;4398136;32;20637;-62
2023/03/07 06:50:17;;;;;;;0.70;0.70;;;2.00;99.90;;;;;;4394935;32;20069;-64
2023/03/07 06:52:42;;;;;;;0.40;0.40;;;2.00;99.90;;;;;;4389114;32;20095;-62
2023/03/07 06:55:09;;;;;;;0.40;0.40;;;2.10;99.90;;;;;;4379153;32;20101;-64
2023/03/07 06:57:35;;;;;;;2.10;1.55;;;2.10;99.90;;;;;;4373686;32;20399;-64
2023/03/07 07:00:04;;;;;;;0.50;0.50;;;2.10;99.90;;;;;;4355756;32;20085;-65
2023/03/07 07:02:30;;;;;;;0.80;0.80;;;2.20;99.90;;;;;;4360227;32;20122;-62
2023/03/07 07:04:57;;;;;;;0.50;0.50;;;2.20;99.90;;;;;;4369791;32;20105;-65
2023/03/07 07:07:23;;;;;;;0.80;0.80;;;2.20;99.90;;;;;;4366913;32;20192;-64
2023/03/07 07:09:48;;;;;;;0.68;0.68;;;2.20;99.90;;;;;;4362831;32;20093;-64
2023/03/07 07:12:14;;;;;;;0.50;0.50;;;2.30;99.90;;;;;;4353653;32;20210;-66
2023/03/07 07:14:39;;;;;;;0.40;0.40;;;2.30;99.90;;;;;;4377479;32;20090;-62
2023/03/07 07:17:05;;;;;;;0.70;0.70;;;2.30;99.90;;;;;;4375309;32;20513;-64
2023/03/07 07:19:30;;;;;;;0.40;0.40;;;2.30;99.90;;;;;;4366244;32;20428;-64
2023/03/07 07:21:56;;;;;;;0.40;0.40;;;2.40;99.90;;;;;;4368171;32;20595;-65
2023/03/07 07:24:22;;;;;;;0.43;0.43;;;2.40;99.90;;;;;;4369578;32;20142;-63
2023/03/07 07:26:48;;;;;;;0.62;0.62;;;2.50;99.90;;;;;;4372570;32;20182;-64
2023/03/07 07:29:14;;;;;;;2.08;1.27;;;2.50;99.90;;;;;;4364442;32;20074;-64
2023/03/07 07:31:40;;;;;;;0.75;0.75;;;2.40;99.90;;;;;;4366863;32;20097;-61
2023/03/07 07:34:06;;;;;;;3.72;1.10;;;2.50;99.90;;;;;;4372945;32;20144;-62
2023/03/07 07:36:33;;;;;;;0.80;0.80;;;2.40;99.90;;;;;;4367836;32;20549;-64
2023/03/07 07:39:04;;;;;;;0.75;0.75;;;2.50;99.90;;;;;;4369623;32;20679;-64
2023/03/07 07:41:29;;;;;;;2.37;1.15;;;2.60;99.90;;;;;;4372022;32;21384;-64
2023/03/07 07:43:55;;;;;;;0.40;0.40;;;2.60;99.90;;;;;;4368357;32;20510;-65
2023/03/07 07:46:20;;;;;;;1.12;0.80;;;2.60;99.90;;;;;;4365933;32;20396;-65
2023/03/07 07:48:47;;;;;;;0.80;0.80;;;2.60;99.90;;;;;;4373773;32;20144;-61
2023/03/07 07:51:12;;;;;;;0.50;0.50;;;2.60;99.90;;;;;;4373217;32;21140;-62
2023/03/07 07:53:38;;;;;;;0.40;0.40;;;2.70;99.90;;;;;;4369096;32;20085;-62
2023/03/07 07:56:05;;;;;;;0.60;0.60;;;2.70;99.90;;;;;;4368519;32;20089;-66
2023/03/07 07:58:30;;;;;;;0.60;0.60;;;2.70;99.90;;;;;;4367256;32;21127;-64
2023/03/07 08:00:56;;;;;;;0.52;0.52;;;2.70;99.90;;;;;;4372730;32;20785;-65
2023/03/07 08:03:23;;;;;;;1.65;0.80;;;2.70;99.90;;;;;;4359807;32;21174;-65
2023/03/07 08:05:49;;;;;;;0.40;0.40;;;2.70;99.90;;;;;;4370453;32;20458;-60
2023/03/07 08:08:16;;;;;;;2.60;1.42;;;2.80;99.90;;;;;;4372433;32;20097;-65
2023/03/07 08:10:44;;;;;;;0.60;0.60;;;2.80;99.90;;;;;;4375396;32;20126;-61
2023/03/07 08:13:13;;;;;;;0.93;0.90;;;2.80;99.90;;;;;;4372363;32;20086;-64
2023/03/07 08:15:39;;;;;;;0.40;0.40;;;2.80;99.90;;;;;;4369767;32;20100;-66
2023/03/07 08:18:05;;;;;;;1.02;0.90;;;2.80;99.90;;;;;;4373218;32;20572;-64
2023/03/07 08:20:30;;;;;;;0.50;0.50;;;2.90;99.90;;;;;;4374304;32;20235;-65
2023/03/07 08:22:56;;;;;;;8.95;1.58;;;2.90;99.90;;;;;;4372844;32;20090;-65
2023/03/07 08:25:22;;;;;;;0.50;0.50;;;2.90;99.90;;;;;;4368454;32;20722;-65
2023/03/07 08:27:53;;;;;;;1.90;1.42;;;3.00;99.90;;;;;;4361594;32;21402;-63
2023/03/07 08:30:19;;;;;;;;;;;3.00;99.90;;;;;;4365755;32;20529;-65
2023/03/07 08:32:49;;;;;;;0.70;0.70;;;3.10;99.90;;;;;;4373047;32;20045;-64
2023/03/07 08:35:14;;;;;;;0.73;0.73;;;3.10;99.90;;;;;;4395073;32;20153;-63
2023/03/07 08:37:41;;;;;;;0.98;0.90;;;3.10;99.90;;;;;;4407093;32;20241;-63
2023/03/07 08:40:08;;;;;;;0.60;0.60;;;3.20;99.90;;;;;;4414132;32;20118;-64
2023/03/07 08:42:34;;;;;;;0.50;0.50;;;3.30;99.90;;;;;;4412431;32;20126;-65
2023/03/07 08:44:59;;;;;;;0.50;0.50;;;3.30;99.90;;;;;;4411591;32;20318;-65
2023/03/07 08:47:25;;;;;;;1.73;1.60;;;3.40;99.90;;;;;;4402941;32;20370;-65
2023/03/07 08:49:51;;;;;;;0.75;0.75;;;3.50;99.90;;;;;;4406755;32;20093;-64
2023/03/07 08:52:16;;;;;;;0.40;0.40;;;3.50;99.90;;;;;;4412472;32;20097;-62
2023/03/07 08:54:42;;;;;;;0.50;0.50;;;3.60;99.90;;;;;;4408703;32;20082;-64
2023/03/07 08:57:13;;;;;;;1.02;0.82;;;3.70;99.90;;;;;;4409558;32;20081;-64
2023/03/07 08:59:39;;;;;;;0.60;0.60;;;3.80;99.90;;;;;;4402871;32;20196;-63
2023/03/07 09:02:05;;;;;;;1.40;1.00;;;3.90;99.90;;;;;;4387499;27;20759;-73
2023/03/07 09:04:30;;;;;;;0.57;0.57;;;3.90;99.90;;;;;;4361349;32;20111;-74
2023/03/07 09:06:57;;;;;;;0.73;0.73;;;3.90;99.90;;;;;;4370422;32;20082;-73
2023/03/07 09:09:23;;;;;;;2.37;0.90;;;3.90;99.90;;;;;;4370901;32;20719;-73
2023/03/07 09:11:48;;;;;;;0.65;0.65;;;3.90;99.90;;;;;;4365175;32;20101;-72
2023/03/07 09:14:14;;;;;;;0.40;0.40;;;3.90;99.90;;;;;;4373170;32;20086;-72
2023/03/07 09:16:39;;;;;;;0.40;0.40;;;4.00;99.90;;;;;;4366921;32;20169;-74
2023/03/07 09:19:05;;;;;;;0.62;0.62;;;4.00;99.90;;;;;;4373081;32;20796;-73
2023/03/07 09:21:31;;;;;;;0.45;0.45;;;4.00;99.90;;;;;;4375831;32;20085;-74
2023/03/07 09:23:56;;;;;;;0.40;0.40;;;4.00;99.90;;;;;;4372342;32;20902;-73
2023/03/07 09:26:22;;;;;;;1.05;0.85;;;4.10;99.90;;;;;;4371449;32;20069;-74
2023/03/07 09:28:48;;;;;;;0.50;0.50;;;4.20;99.90;;;;;;4370826;32;20199;-73
2023/03/07 09:31:14;;;;;;;1.10;0.93;;;4.30;99.90;;;;;;4360726;32;20466;-75
2023/03/07 09:33:41;;;;;;;0.73;0.73;;;4.40;99.90;;;;;;4365788;32;20969;-74
2023/03/07 09:36:08;;;;;;;0.40;0.40;;;4.40;99.90;;;;;;4368109;32;20961;-74
2023/03/07 09:38:36;;;;;;;0.60;0.60;;;4.50;99.90;;;;;;4372362;32;20148;-74
2023/03/07 09:41:28;;;;;;;0.50;0.50;;;4.80;99.90;;;;;;4382672;32;20148;-71
2023/03/07 09:44:02;;;;;;;0.37;0.37;;;4.90;99.90;;;;;;4362993;32;20098;-73
2023/03/07 09:46:55;;;;;;;0.85;0.85;;;4.90;99.90;;;;;;4364308;32;20102;-73
2023/03/07 09:49:35;;;;;;;0.50;0.50;;;5.00;99.90;;;;;;4361540;32;21648;-71
2023/03/07 09:52:01;;;;;;;0.40;0.40;;;4.80;99.90;;;;;;4382516;32;20489;-72
2023/03/07 09:54:39;;;;;;;0.40;0.40;;;4.70;99.90;;;;;;4375460;32;20086;-75
2023/03/07 09:57:11;;;;;;;0.55;0.55;;;4.80;99.90;;;;;;4368051;32;20121;-75
2023/03/07 09:59:42;;;;;;;0.40;0.40;;;4.80;99.90;;;;;;4373632;32;20089;-74
2023/03/07 10:02:22;;;;;;;1.85;0.70;;;4.70;99.90;;;;;;4377595;32;20231;-76
2023/03/07 10:05:06;;;;;;;0.40;0.40;;;4.70;99.90;;;;;;4369812;32;20206;-73
2023/03/07 10:07:34;;;;;;;0.50;0.50;;;4.80;99.90;;;;;;4367693;32;20368;-72
2023/03/07 10:10:03;;;;;;;0.50;0.50;;;4.90;99.90;;;;;;4363538;32;20090;-71
2023/03/07 10:12:57;;;;;;;0.88;0.88;;;4.80;99.90;;;;;;4368126;32;20075;-74
2023/03/07 10:15:47;;;;;;;0.40;0.40;;;4.80;99.90;;;;;;4353360;32;20110;-74
2023/03/07 10:18:24;;;;;;;0.50;0.50;;;4.80;99.90;;;;;;4361221;32;20596;-71
2023/03/07 10:21:00;;;;;;;0.47;0.47;;;4.70;99.90;;;;;;4353967;32;20163;-74
2023/03/07 10:24:07;;;;;;;0.57;0.57;;;4.70;99.90;;;;;;4353239;32;20105;-74
2023/03/07 10:26:58;;;;;;;0.50;0.50;;;4.80;99.90;;;;;;4352741;32;20471;-71
2023/03/07 10:29:30;;;;;;;0.60;0.60;;;4.70;99.90;;;;;;4365096;32;20092;-70
2023/03/07 10:32:05;;;;;;;0.50;0.50;;;4.70;99.90;;;;;;4360953;32;20102;-72
2023/03/07 10:34:31;;;;;;;0.30;0.30;;;4.70;99.90;;;;;;4360110;32;20101;-73
2023/03/07 10:37:09;;;;;;;2.40;1.10;;;4.70;99.90;;;;;;4365081;32;21015;-76
2023/03/07 10:39:39;;;;;;;0.40;0.40;;;4.70;99.90;;;;;;4358093;32;20560;-71
2023/03/07 10:42:10;;;;;;;0.60;0.60;;;4.70;99.90;;;;;;4370001;32;20419;-73
2023/03/07 10:44:36;;;;;;;;;;;4.70;99.90;;;;;;4368710;32;20469;-75
2023/03/07 10:47:02;;;;;;;0.40;0.40;;;4.70;99.90;;;;;;4361244;32;20061;-72
2023/03/07 10:49:33;;;;;;;0.60;0.60;;;4.70;99.90;;;;;;4367699;32;20114;-75
2023/03/07 10:52:27;;;;;;;1.37;0.88;;;4.70;99.90;;;;;;4375954;32;20108;-73
2023/03/07 10:54:54;;;;;;;0.40;0.40;;;4.60;99.90;;;;;;4362804;32;20086;-74
2023/03/07 10:57:26;;;;;;;0.50;0.50;;;4.50;99.90;;;;;;4371256;32;20104;-72
2023/03/07 10:59:52;;;;;;;0.40;0.40;;;4.40;99.90;;;;;;4365914;32;20082;-75
2023/03/07 11:02:28;;;;;;;0.45;0.45;;;4.50;99.90;;;;;;4371529;32;20212;-74
2023/03/07 11:04:54;;;;;;;0.40;0.40;;;4.40;99.90;;;;;;4373209;32;20089;-72
2023/03/07 11:07:31;;;;;;;0.43;0.43;;;4.40;99.90;;;;;;4368513;32;20608;-75
2023/03/07 11:10:18;;;;;;;0.40;0.40;;;4.40;99.90;;;;;;4371215;32;20508;-73
2023/03/07 11:12:45;;;;;;;0.50;0.50;;;4.30;99.90;;;;;;4359756;32;20580;-74
2023/03/07 11:15:20;;;;;;;1.75;0.80;;;4.30;99.90;;;;;;4367846;32;20462;-76
2023/03/07 11:17:47;;;;;;;0.60;0.60;;;4.20;99.90;;;;;;4366512;32;20158;-75
2023/03/07 11:20:23;;;;;;;0.40;0.40;;;4.20;99.90;;;;;;4376654;32;20106;-72
2023/03/07 11:23:13;;;;;;;0.40;0.40;;;4.20;99.90;;;;;;4377256;32;21677;-74
2023/03/07 11:25:38;;;;;;;0.80;0.80;;;4.10;99.90;;;;;;4346170;32;20472;-76
2023/03/07 11:28:29;;;;;;;0.40;0.40;;;4.20;99.90;;;;;;4362983;32;20109;-72
2023/03/07 11:31:05;;;;;;;0.30;0.30;;;4.10;99.90;;;;;;4367066;32;20121;-74
2023/03/07 11:33:59;;;;;;;0.37;0.37;;;4.10;99.90;;;;;;4372238;32;20062;-74
2023/03/07 11:36:31;;;;;;;0.40;0.40;;;4.10;99.90;;;;;;4369739;32;20185;-73
2023/03/07 11:39:37;;;;;;;0.50;0.50;;;4.10;99.90;;;;;;4375051;32;20206;-74
2023/03/07 11:42:23;;;;;;;0.40;0.40;;;4.30;99.90;;;;;;4353030;32;20085;-72
2023/03/07 11:44:53;;;;;;;0.37;0.37;;;4.20;99.90;;;;;;4358406;32;114422;-73
2023/03/07 11:47:37;;;;;;;0.40;0.40;;;4.20;99.90;;;;;;4367329;32;20093;-74
2023/03/07 11:50:17;;;;;;;0.30;0.30;;;4.20;99.90;;;;;;4371184;32;20094;-75
2023/03/07 11:53:08;;;;;;;0.40;0.40;;;4.30;99.90;;;;;;4365307;32;20090;-75
2023/03/07 11:55:48;;;;;;;0.30;0.30;;;4.40;99.90;;;;;;4355299;32;21090;-74
2023/03/07 11:58:29;;;;;;;0.40;0.40;;;4.30;99.90;;;;;;4346089;32;20686;-75
2023/03/07 12:01:07;;;;;;;0.40;0.40;;;4.20;99.90;;;;;;4376192;32;21088;-75
2023/03/07 12:03:34;;;;;;;0.40;0.40;;;4.20;99.90;;;;;;4372315;32;20137;-75
2023/03/07 12:06:11;;;;;;;4.47;2.25;;;4.20;99.90;;;;;;4359057;32;20134;-75
2023/03/07 12:09:03;;;;;;;0.30;0.30;;;4.30;99.90;;;;;;4372243;32;20175;-70
2023/03/07 12:11:56;;;;;;;0.47;0.47;;;4.30;99.90;;;;;;4360144;32;21043;-75
2023/03/07 12:14:43;;;;;;;0.50;0.50;;;4.30;99.90;;;;;;4361279;32;20137;-74
2023/03/07 12:17:34;;;;;;;0.40;0.40;;;4.30;99.90;;;;;;4362291;32;20513;-75
2023/03/07 12:20:23;;;;;;;0.40;0.40;;;4.30;99.90;;;;;;4369492;32;20553;-75
2023/03/07 12:23:05;;;;;;;0.50;0.50;;;4.10;99.90;;;;;;4376874;32;20069;-75
2023/03/07 12:25:39;;;;;;;0.45;0.45;;;4.00;99.90;;;;;;4374142;32;21121;-73
2023/03/07 12:28:26;;;;;;;0.50;0.50;;;4.00;99.90;;;;;;4373924;32;20456;-74
2023/03/07 12:31:04;;;;;;;0.70;0.70;;;4.00;99.90;;;;;;4376121;32;20109;-75
2023/03/07 12:34:06;;;;;;;0.40;0.40;;;4.00;99.90;;;;;;4377675;32;20106;-74
2023/03/07 12:36:46;;;;;;;0.40;0.40;;;3.90;99.90;;;;;;4360124;32;20153;-74
2023/03/07 12:39:31;;;;;;;0.50;0.50;;;3.80;99.90;;;;;;4347594;32;20663;-74
2023/03/07 12:42:20;;;;;;;0.30;0.30;;;3.80;99.90;;;;;;4359797;32;20129;-74
2023/03/07 12:45:00;;;;;;;0.35;0.35;;;3.70;99.90;;;;;;4361806;32;20168;-74
2023/03/07 12:47:48;;;;;;;0.30;0.30;;;3.70;99.90;;;;;;4353906;32;21112;-74
2023/03/07 12:50:21;;;;;;;0.73;0.73;;;3.70;99.90;;;;;;4362374;32;20569;-73
2023/03/07 12:53:09;;;;;;;0.40;0.40;;;3.50;99.90;;;;;;4369796;32;20211;-75
2023/03/07 12:55:53;;;;;;;0.40;0.40;;;3.50;99.90;;;;;;4363142;32;20110;-73
2023/03/07 12:58:33;;;;;;;0.40;0.40;;;3.40;99.90;;;;;;4370424;32;20114;-74
2023/03/07 13:01:02;;;;;;;0.55;0.55;;;3.40;99.90;;;;;;4356012;32;20081;-75
2023/03/07 13:03:58;;;;;;;0.43;0.43;;;3.40;99.90;;;;;;4371590;32;20101;-73
2023/03/07 13:06:24;;;;;;;0.45;0.45;;;3.40;99.90;;;;;;4364656;32;20085;-74
2023/03/07 13:08:54;;;;;;;0.40;0.40;;;3.40;99.90;;;;;;4378185;32;20110;-75
2023/03/07 13:11:24;;;;;;;0.40;0.40;;;3.40;99.90;;;;;;4371550;32;20094;-76